sensor_id;sensor_type;location;lat;lon;timestamp;temperature;humidity
3794;DHT22;1912;51.358;12.282;2023-04-24T03:45:16;11.30;1.00
3794;DHT22;1912;51.358;12.282;2023-04-24T03:47:42;11.20;1.00
3794;DHT22;1912;51.358;12.282;2023-04-24T03:50:08;11.20;1.00
3794;DHT22;1912;51.358;12.282;2023-04-24T03:52:34;11.20;1.00
3794;DHT22;1912;51.358;12.282;2023-04-24T03:55:00;11.10;1.00
3794;DHT22;1912;51.358;12.282;2023-04-24T03:57:26;11.20;1.00
3794;DHT22;1912;51.358;12.282;2023-04-24T03:59:51;11.10;1.00
3794;DHT22;1912;51.358;12.282;2023-04-24T04:02:18;11.10;1.00
3794;DHT22;1912;51.358;12.282;2023-04-24T04:04:44;11.10;1.00
3794;DHT22;1912;51.358;12.282;2023-04-24T04:07:10;11.00;1.00
3794;DHT22;1912;51.358;12.282;2023-04-24T04:09:36;11.10;1.00
3794;DHT22;1912;51.358;12.282;2023-04-24T04:12:02;11.10;1.00
3794;DHT22;1912;51.358;12.282;2023-04-24T04:14:28;11.00;1.00
3794;DHT22;1912;51.358;12.282;2023-04-24T04:16:54;11.10;1.00
3794;DHT22;1912;51.358;12.282;2023-04-24T04:19:19;11.20;1.00
3794;DHT22;1912;51.358;12.282;2023-04-24T04:21:45;11.10;1.00
3794;DHT22;1912;51.358;12.282;2023-04-24T04:24:11;11.10;1.00
3794;DHT22;1912;51.358;12.282;2023-04-24T04:26:37;11.10;1.00
3794;DHT22;1912;51.358;12.282;2023-04-24T04:29:03;11.10;1.00
3794;DHT22;1912;51.358;12.282;2023-04-24T04:31:29;11.10;1.00
3794;DHT22;1912;51.358;12.282;2023-04-24T04:33:55;11.20;1.00
3794;DHT22;1912;51.358;12.282;2023-04-24T04:36:21;11.30;1.00
3794;DHT22;1912;51.358;12.282;2023-04-24T04:38:47;11.30;1.00
3794;DHT22;1912;51.358;12.282;2023-04-24T04:41:13;11.30;1.00
3794;DHT22;1912;51.358;12.282;2023-04-24T04:43:39;11.40;1.00
3794;DHT22;1912;51.358;12.282;2023-04-24T04:46:05;11.40;1.00
3794;DHT22;1912;51.358;12.282;2023-04-24T04:48:31;11.40;1.00
3794;DHT22;1912;51.358;12.282;2023-04-24T04:50:57;11.40;1.00
3794;DHT22;1912;51.358;12.282;2023-04-24T04:53:24;11.50;1.00
3794;DHT22;1912;51.358;12.282;2023-04-24T04:55:49;11.50;1.00
3794;DHT22;1912;51.358;12.282;2023-04-24T04:58:15;11.60;1.00
3794;DHT22;1912;51.358;12.282;2023-04-24T05:00:41;11.60;1.00
3794;DHT22;1912;51.358;12.282;2023-04-24T05:03:06;11.60;1.00
3794;DHT22;1912;51.358;12.282;2023-04-24T05:05:32;11.70;1.00
3794;DHT22;1912;51.358;12.282;2023-04-24T05:07:58;11.70;1.00
3794;DHT22;1912;51.358;12.282;2023-04-24T05:10:23;11.70;1.00
3794;DHT22;1912;51.358;12.282;2023-04-24T05:12:49;11.60;1.00
3794;DHT22;1912;51.358;12.282;2023-04-24T05:15:15;11.70;1.00
3794;DHT22;1912;51.358;12.282;2023-04-24T05:17:40;11.70;1.00
3794;DHT22;1912;51.358;12.282;2023-04-24T05:20:07;11.80;1.00
3794;DHT22;1912;51.358;12.282;2023-04-24T05:22:33;11.80;1.00
3794;DHT22;1912;51.358;12.282;2023-04-24T05:24:59;11.80;1.00
3794;DHT22;1912;51.358;12.282;2023-04-24T05:27:24;11.80;1.00
3794;DHT22;1912;51.358;12.282;2023-04-24T05:29:50;11.80;1.00
3794;DHT22;1912;51.358;12.282;2023-04-24T05:32:16;11.80;1.00
3794;DHT22;1912;51.358;12.282;2023-04-24T05:34:41;11.80;1.00
3794;DHT22;1912;51.358;12.282;2023-04-24T05:37:07;11.90;1.00
3794;DHT22;1912;51.358;12.282;2023-04-24T05:39:35;12.00;1.00
3794;DHT22;1912;51.358;12.282;2023-04-24T05:42:01;12.00;1.00
3794;DHT22;1912;51.358;12.282;2023-04-24T05:44:27;12.10;1.00
3794;DHT22;1912;51.358;12.282;2023-04-24T05:46:53;12.10;1.00
3794;DHT22;1912;51.358;12.282;2023-04-24T05:49:20;12.20;1.00
3794;DHT22;1912;51.358;12.282;2023-04-24T05:51:46;12.20;1.00
3794;DHT22;1912;51.358;12.282;2023-04-24T05:54:11;12.30;1.00
3794;DHT22;1912;51.358;12.282;2023-04-24T05:56:37;12.30;1.00
3794;DHT22;1912;51.358;12.282;2023-04-24T05:59:03;12.40;1.00
3794;DHT22;1912;51.358;12.282;2023-04-24T06:01:29;12.50;1.00
3794;DHT22;1912;51.358;12.282;2023-04-24T06:03:55;12.60;1.00
3794;DHT22;1912;51.358;12.282;2023-04-24T06:06:21;12.60;1.00
3794;DHT22;1912;51.358;12.282;2023-04-24T06:08:46;12.70;1.00
3794;DHT22;1912;51.358;12.282;2023-04-24T06:11:12;12.70;1.00
3794;DHT22;1912;51.358;12.282;2023-04-24T06:13:38;12.80;1.00
3794;DHT22;1912;51.358;12.282;2023-04-24T06:16:04;12.80;1.00
3794;DHT22;1912;51.358;12.282;2023-04-24T06:18:29;12.80;1.00
3794;DHT22;1912;51.358;12.282;2023-04-24T06:20:55;12.80;1.00
3794;DHT22;1912;51.358;12.282;2023-04-24T06:23:21;12.80;1.00
3794;DHT22;1912;51.358;12.282;2023-04-24T06:25:47;12.80;1.00
3794;DHT22;1912;51.358;12.282;2023-04-24T06:28:12;12.80;1.00
3794;DHT22;1912;51.358;12.282;2023-04-24T06:30:38;12.70;1.00
3794;DHT22;1912;51.358;12.282;2023-04-24T06:33:04;12.70;1.00
3794;DHT22;1912;51.358;12.282;2023-04-24T06:35:29;12.70;1.00
3794;DHT22;1912;51.358;12.282;2023-04-24T06:37:55;12.80;1.00
3794;DHT22;1912;51.358;12.282;2023-04-24T06:40:21;12.80;1.00
3794;DHT22;1912;51.358;12.282;2023-04-24T06:42:47;12.80;1.00
3794;DHT22;1912;51.358;12.282;2023-04-24T06:45:13;12.80;1.00
3794;DHT22;1912;51.358;12.282;2023-04-24T06:47:39;12.70;1.00
3794;DHT22;1912;51.358;12.282;2023-04-24T06:50:05;12.80;1.00
3794;DHT22;1912;51.358;12.282;2023-04-24T06:52:31;12.80;1.00
3794;DHT22;1912;51.358;12.282;2023-04-24T06:55:05;12.80;1.00
3794;DHT22;1912;51.358;12.282;2023-04-24T06:57:31;12.90;1.00
3794;DHT22;1912;51.358;12.282;2023-04-24T06:59:57;13.00;1.00
3794;DHT22;1912;51.358;12.282;2023-04-24T07:02:23;13.00;1.00
3794;DHT22;1912;51.358;12.282;2023-04-24T07:04:48;13.00;1.00
3794;DHT22;1912;51.358;12.282;2023-04-24T07:07:14;13.00;1.00
3794;DHT22;1912;51.358;12.282;2023-04-24T07:09:40;13.00;1.00
3794;DHT22;1912;51.358;12.282;2023-04-24T07:12:11;12.90;1.00
3794;DHT22;1912;51.358;12.282;2023-04-24T07:14:37;12.90;1.00
3794;DHT22;1912;51.358;12.282;2023-04-24T07:17:04;13.00;1.00
3794;DHT22;1912;51.358;12.282;2023-04-24T07:19:30;13.00;1.00
3794;DHT22;1912;51.358;12.282;2023-04-24T07:21:55;13.00;1.00
3794;DHT22;1912;51.358;12.282;2023-04-24T07:24:24;13.00;1.00
3794;DHT22;1912;51.358;12.282;2023-04-24T07:26:51;13.10;1.00
3794;DHT22;1912;51.358;12.282;2023-04-24T07:29:17;13.10;1.00
3794;DHT22;1912;51.358;12.282;2023-04-24T07:31:43;13.20;1.00
3794;DHT22;1912;51.358;12.282;2023-04-24T07:34:09;13.20;1.00
3794;DHT22;1912;51.358;12.282;2023-04-24T07:36:35;13.30;1.00
3794;DHT22;1912;51.358;12.282;2023-04-24T07:39:04;13.40;1.00
3794;DHT22;1912;51.358;12.282;2023-04-24T07:41:30;13.40;1.00
3794;DHT22;1912;51.358;12.282;2023-04-24T07:43:55;13.50;1.00
3794;DHT22;1912;51.358;12.282;2023-04-24T07:46:21;13.70;1.00
3794;DHT22;1912;51.358;12.282;2023-04-24T07:48:48;13.70;1.00
3794;DHT22;1912;51.358;12.282;2023-04-24T07:51:14;14.00;1.00
3794;DHT22;1912;51.358;12.282;2023-04-24T07:53:41;14.10;1.00
3794;DHT22;1912;51.358;12.282;2023-04-24T07:56:07;14.50;1.00
3794;DHT22;1912;51.358;12.282;2023-04-24T07:58:34;14.60;1.00
3794;DHT22;1912;51.358;12.282;2023-04-24T08:01:00;14.90;1.00
3794;DHT22;1912;51.358;12.282;2023-04-24T08:03:25;15.00;1.00
3794;DHT22;1912;51.358;12.282;2023-04-24T08:05:51;14.70;1.00
3794;DHT22;1912;51.358;12.282;2023-04-24T08:08:17;14.70;1.00
3794;DHT22;1912;51.358;12.282;2023-04-24T08:10:42;14.70;1.00
3794;DHT22;1912;51.358;12.282;2023-04-24T08:13:08;14.80;1.00
3794;DHT22;1912;51.358;12.282;2023-04-24T08:15:34;15.00;1.00
3794;DHT22;1912;51.358;12.282;2023-04-24T08:18:00;15.10;1.00
3794;DHT22;1912;51.358;12.282;2023-04-24T08:20:26;15.20;1.00
3794;DHT22;1912;51.358;12.282;2023-04-24T08:22:51;15.10;1.00
3794;DHT22;1912;51.358;12.282;2023-04-24T08:25:17;15.00;1.00
3794;DHT22;1912;51.358;12.282;2023-04-24T08:27:44;15.00;1.00
3794;DHT22;1912;51.358;12.282;2023-04-24T08:30:10;15.10;1.00
3794;DHT22;1912;51.358;12.282;2023-04-24T08:32:36;15.00;1.00
3794;DHT22;1912;51.358;12.282;2023-04-24T08:35:02;15.20;1.00
3794;DHT22;1912;51.358;12.282;2023-04-24T08:37:28;15.30;1.00
3794;DHT22;1912;51.358;12.282;2023-04-24T08:39:54;15.30;1.00
3794;DHT22;1912;51.358;12.282;2023-04-24T08:42:21;15.30;1.00
3794;DHT22;1912;51.358;12.282;2023-04-24T08:44:48;15.20;1.00
3794;DHT22;1912;51.358;12.282;2023-04-24T08:47:15;15.20;1.00
3794;DHT22;1912;51.358;12.282;2023-04-24T08:49:41;15.30;1.00
3794;DHT22;1912;51.358;12.282;2023-04-24T08:52:08;15.90;1.00
3794;DHT22;1912;51.358;12.282;2023-04-24T08:54:35;16.00;1.00
3794;DHT22;1912;51.358;12.282;2023-04-24T08:57:02;16.10;1.00
3794;DHT22;1912;51.358;12.282;2023-04-24T08:59:30;16.40;1.00
3794;DHT22;1912;51.358;12.282;2023-04-24T09:01:56;15.70;1.00
3794;DHT22;1912;51.358;12.282;2023-04-24T09:04:24;15.20;1.00
3794;DHT22;1912;51.358;12.282;2023-04-24T09:06:55;14.90;1.00
3794;DHT22;1912;51.358;12.282;2023-04-24T09:09:22;14.80;1.00
3794;DHT22;1912;51.358;12.282;2023-04-24T09:11:49;14.60;1.00
3794;DHT22;1912;51.358;12.282;2023-04-24T09:14:17;14.70;1.00
3794;DHT22;1912;51.358;12.282;2023-04-24T09:16:43;14.60;1.00
3794;DHT22;1912;51.358;12.282;2023-04-24T09:19:09;14.50;1.00
3794;DHT22;1912;51.358;12.282;2023-04-24T09:21:35;14.50;1.00
3794;DHT22;1912;51.358;12.282;2023-04-24T09:24:08;14.60;1.00
3794;DHT22;1912;51.358;12.282;2023-04-24T09:26:43;14.70;1.00
3794;DHT22;1912;51.358;12.282;2023-04-24T09:29:17;14.60;1.00
3794;DHT22;1912;51.358;12.282;2023-04-24T09:31:44;14.60;1.00
3794;DHT22;1912;51.358;12.282;2023-04-24T09:34:11;14.50;1.00
3794;DHT22;1912;51.358;12.282;2023-04-24T09:36:39;14.60;1.00
3794;DHT22;1912;51.358;12.282;2023-04-24T09:39:08;14.70;1.00
3794;DHT22;1912;51.358;12.282;2023-04-24T09:44:24;14.90;1.00
3794;DHT22;1912;51.358;12.282;2023-04-24T09:47:00;14.90;1.00
3794;DHT22;1912;51.358;12.282;2023-04-24T09:49:30;14.90;1.00
3794;DHT22;1912;51.358;12.282;2023-04-24T09:52:09;15.40;1.00
3794;DHT22;1912;51.358;12.282;2023-04-24T09:54:36;15.30;1.00
3794;DHT22;1912;51.358;12.282;2023-04-24T09:57:02;15.60;1.00
3794;DHT22;1912;51.358;12.282;2023-04-24T09:59:29;15.60;1.00
3794;DHT22;1912;51.358;12.282;2023-04-24T10:01:55;15.50;1.00
3794;DHT22;1912;51.358;12.282;2023-04-24T10:04:23;15.10;1.00
3794;DHT22;1912;51.358;12.282;2023-04-24T10:06:50;15.20;1.00
3794;DHT22;1912;51.358;12.282;2023-04-24T10:09:18;15.50;1.00
3794;DHT22;1912;51.358;12.282;2023-04-24T10:11:47;15.40;1.00
3794;DHT22;1912;51.358;12.282;2023-04-24T10:14:18;15.20;1.00
3794;DHT22;1912;51.358;12.282;2023-04-24T10:16:49;15.20;1.00
3794;DHT22;1912;51.358;12.282;2023-04-24T10:19:16;15.30;1.00
3794;DHT22;1912;51.358;12.282;2023-04-24T10:21:44;15.70;1.00
3794;DHT22;1912;51.358;12.282;2023-04-24T10:24:17;16.20;1.00
3794;DHT22;1912;51.358;12.282;2023-04-24T10:26:45;17.00;1.00
3794;DHT22;1912;51.358;12.282;2023-04-24T10:29:12;16.70;1.00
3794;DHT22;1912;51.358;12.282;2023-04-24T10:31:40;16.40;1.00
3794;DHT22;1912;51.358;12.282;2023-04-24T10:34:08;16.40;1.00
3794;DHT22;1912;51.358;12.282;2023-04-24T10:36:36;16.80;1.00
3794;DHT22;1912;51.358;12.282;2023-04-24T10:39:09;16.60;1.00
3794;DHT22;1912;51.358;12.282;2023-04-24T10:41:38;16.50;1.00
3794;DHT22;1912;51.358;12.282;2023-04-24T10:44:07;17.00;1.00
3794;DHT22;1912;51.358;12.282;2023-04-24T10:46:35;17.40;1.00
3794;DHT22;1912;51.358;12.282;2023-04-24T10:49:06;17.30;1.00
3794;DHT22;1912;51.358;12.282;2023-04-24T10:51:47;17.20;1.00
3794;DHT22;1912;51.358;12.282;2023-04-24T10:59:45;17.20;1.00
3794;DHT22;1912;51.358;12.282;2023-04-24T11:02:14;16.80;1.00
3794;DHT22;1912;51.358;12.282;2023-04-24T11:04:41;16.70;1.00
3794;DHT22;1912;51.358;12.282;2023-04-24T11:07:09;16.80;1.00
3794;DHT22;1912;51.358;12.282;2023-04-24T11:09:35;17.00;1.00
3794;DHT22;1912;51.358;12.282;2023-04-24T11:12:09;17.30;1.00
3794;DHT22;1912;51.358;12.282;2023-04-24T11:17:34;17.90;1.00
3794;DHT22;1912;51.358;12.282;2023-04-24T11:20:04;17.80;1.00
3794;DHT22;1912;51.358;12.282;2023-04-24T11:22:40;17.40;1.00
3794;DHT22;1912;51.358;12.282;2023-04-24T11:25:06;16.90;1.00
3794;DHT22;1912;51.358;12.282;2023-04-24T11:27:40;17.30;1.00
3794;DHT22;1912;51.358;12.282;2023-04-24T11:30:08;17.70;1.00
3794;DHT22;1912;51.358;12.282;2023-04-24T11:32:37;17.30;1.00
3794;DHT22;1912;51.358;12.282;2023-04-24T11:35:15;16.80;1.00
3794;DHT22;1912;51.358;12.282;2023-04-24T11:37:44;16.50;1.00
3794;DHT22;1912;51.358;12.282;2023-04-24T11:40:12;16.50;1.00
3794;DHT22;1912;51.358;12.282;2023-04-24T11:42:43;16.30;1.00
3794;DHT22;1912;51.358;12.282;2023-04-24T11:45:23;16.10;1.00
3794;DHT22;1912;51.358;12.282;2023-04-24T11:47:50;16.20;1.00
3794;DHT22;1912;51.358;12.282;2023-04-24T11:50:18;16.40;1.00
3794;DHT22;1912;51.358;12.282;2023-04-24T11:52:47;16.60;1.00
3794;DHT22;1912;51.358;12.282;2023-04-24T11:57:39;17.10;1.00
3794;DHT22;1912;51.358;12.282;2023-04-24T12:00:36;16.80;1.00
3794;DHT22;1912;51.358;12.282;2023-04-24T12:03:09;16.30;1.00
3794;DHT22;1912;51.358;12.282;2023-04-24T12:05:36;16.20;1.00
3794;DHT22;1912;51.358;12.282;2023-04-24T12:08:03;17.10;1.00
3794;DHT22;1912;51.358;12.282;2023-04-24T12:10:30;17.90;1.00
3794;DHT22;1912;51.358;12.282;2023-04-24T12:12:57;17.90;1.00
3794;DHT22;1912;51.358;12.282;2023-04-24T12:15:24;17.70;1.00
3794;DHT22;1912;51.358;12.282;2023-04-24T12:17:54;18.20;1.00
3794;DHT22;1912;51.358;12.282;2023-04-24T12:20:31;18.00;1.00
3794;DHT22;1912;51.358;12.282;2023-04-24T12:22:59;18.00;1.00
3794;DHT22;1912;51.358;12.282;2023-04-24T12:25:27;18.00;1.00
3794;DHT22;1912;51.358;12.282;2023-04-24T12:27:54;18.50;1.00
3794;DHT22;1912;51.358;12.282;2023-04-24T12:30:27;17.90;1.00
3794;DHT22;1912;51.358;12.282;2023-04-24T12:32:57;17.50;1.00
3794;DHT22;1912;51.358;12.282;2023-04-24T12:35:25;17.00;1.00
3794;DHT22;1912;51.358;12.282;2023-04-24T12:37:52;16.90;1.00
3794;DHT22;1912;51.358;12.282;2023-04-24T12:40:20;17.10;1.00
3794;DHT22;1912;51.358;12.282;2023-04-24T12:42:48;17.50;1.00
3794;DHT22;1912;51.358;12.282;2023-04-24T12:45:15;17.00;1.00
3794;DHT22;1912;51.358;12.282;2023-04-24T12:47:43;17.00;1.00
3794;DHT22;1912;51.358;12.282;2023-04-24T12:50:11;17.20;1.00
3794;DHT22;1912;51.358;12.282;2023-04-24T12:52:38;17.50;1.00
3794;DHT22;1912;51.358;12.282;2023-04-24T12:55:05;17.60;1.00
3794;DHT22;1912;51.358;12.282;2023-04-24T12:57:35;17.70;1.00
3794;DHT22;1912;51.358;12.282;2023-04-24T13:00:02;17.90;1.00
3794;DHT22;1912;51.358;12.282;2023-04-24T13:02:29;18.60;1.00
3794;DHT22;1912;51.358;12.282;2023-04-24T13:04:57;18.50;1.00
3794;DHT22;1912;51.358;12.282;2023-04-24T13:07:24;17.90;1.00
3794;DHT22;1912;51.358;12.282;2023-04-24T13:09:50;18.60;1.00
3794;DHT22;1912;51.358;12.282;2023-04-24T13:12:17;18.00;1.00
3794;DHT22;1912;51.358;12.282;2023-04-24T13:14:43;17.60;1.00
3794;DHT22;1912;51.358;12.282;2023-04-24T13:17:09;17.30;1.00
3794;DHT22;1912;51.358;12.282;2023-04-24T13:19:36;17.60;1.00
3794;DHT22;1912;51.358;12.282;2023-04-24T13:22:03;17.90;1.00
3794;DHT22;1912;51.358;12.282;2023-04-24T13:24:29;18.00;1.00
3794;DHT22;1912;51.358;12.282;2023-04-24T13:26:57;18.10;1.00
3794;DHT22;1912;51.358;12.282;2023-04-24T13:29:23;18.20;1.00
3794;DHT22;1912;51.358;12.282;2023-04-24T13:31:52;17.30;1.00
3794;DHT22;1912;51.358;12.282;2023-04-24T13:34:23;17.20;1.00
3794;DHT22;1912;51.358;12.282;2023-04-24T13:36:50;17.00;1.00
3794;DHT22;1912;51.358;12.282;2023-04-24T13:39:17;16.70;1.00
3794;DHT22;1912;51.358;12.282;2023-04-24T13:41:43;16.40;1.00
3794;DHT22;1912;51.358;12.282;2023-04-24T13:44:09;16.40;1.00
3794;DHT22;1912;51.358;12.282;2023-04-24T13:46:35;16.30;1.00
3794;DHT22;1912;51.358;12.282;2023-04-24T13:49:02;16.20;1.00
3794;DHT22;1912;51.358;12.282;2023-04-24T13:51:29;16.10;1.00
3794;DHT22;1912;51.358;12.282;2023-04-24T13:53:55;16.30;1.00
3794;DHT22;1912;51.358;12.282;2023-04-24T13:56:21;16.30;1.00
3794;DHT22;1912;51.358;12.282;2023-04-24T13:58:48;16.10;1.00
3794;DHT22;1912;51.358;12.282;2023-04-24T14:01:14;16.30;1.00
3794;DHT22;1912;51.358;12.282;2023-04-24T14:03:41;16.80;1.00
3794;DHT22;1912;51.358;12.282;2023-04-24T14:06:07;17.30;1.00
3794;DHT22;1912;51.358;12.282;2023-04-24T14:08:33;17.40;1.00
3794;DHT22;1912;51.358;12.282;2023-04-24T14:10:59;16.90;1.00
3794;DHT22;1912;51.358;12.282;2023-04-24T14:13:24;16.30;1.00
3794;DHT22;1912;51.358;12.282;2023-04-24T14:15:51;16.20;1.00
3794;DHT22;1912;51.358;12.282;2023-04-24T14:18:17;16.00;1.00
3794;DHT22;1912;51.358;12.282;2023-04-24T14:20:44;15.90;1.00
3794;DHT22;1912;51.358;12.282;2023-04-24T14:23:10;16.40;1.00
3794;DHT22;1912;51.358;12.282;2023-04-24T14:25:35;16.40;1.00
3794;DHT22;1912;51.358;12.282;2023-04-24T14:28:01;16.50;1.00
3794;DHT22;1912;51.358;12.282;2023-04-24T14:30:27;16.80;1.00
3794;DHT22;1912;51.358;12.282;2023-04-24T14:32:52;16.90;1.00
3794;DHT22;1912;51.358;12.282;2023-04-24T14:35:18;16.80;1.00
3794;DHT22;1912;51.358;12.282;2023-04-24T14:37:44;16.50;1.00
3794;DHT22;1912;51.358;12.282;2023-04-24T14:40:10;16.20;1.00
3794;DHT22;1912;51.358;12.282;2023-04-24T14:42:36;16.20;1.00
3794;DHT22;1912;51.358;12.282;2023-04-24T14:45:02;16.40;1.00
3794;DHT22;1912;51.358;12.282;2023-04-24T14:47:28;16.50;1.00
3794;DHT22;1912;51.358;12.282;2023-04-24T14:49:54;16.30;1.00
3794;DHT22;1912;51.358;12.282;2023-04-24T14:52:20;15.90;1.00
3794;DHT22;1912;51.358;12.282;2023-04-24T14:54:46;15.40;1.00
3794;DHT22;1912;51.358;12.282;2023-04-24T14:57:11;15.00;1.00
3794;DHT22;1912;51.358;12.282;2023-04-24T14:59:37;14.90;1.00
3794;DHT22;1912;51.358;12.282;2023-04-24T15:02:03;14.80;1.00
3794;DHT22;1912;51.358;12.282;2023-04-24T15:04:29;14.70;1.00
3794;DHT22;1912;51.358;12.282;2023-04-24T15:06:56;14.70;1.00
3794;DHT22;1912;51.358;12.282;2023-04-24T15:09:22;14.80;1.00
3794;DHT22;1912;51.358;12.282;2023-04-24T15:11:49;14.90;1.00
3794;DHT22;1912;51.358;12.282;2023-04-24T15:14:16;15.20;1.00
3794;DHT22;1912;51.358;12.282;2023-04-24T15:16:42;14.80;1.00
3794;DHT22;1912;51.358;12.282;2023-04-24T15:19:08;14.70;1.00
3794;DHT22;1912;51.358;12.282;2023-04-24T15:21:36;14.40;1.00
3794;DHT22;1912;51.358;12.282;2023-04-24T15:24:02;14.10;1.00
3794;DHT22;1912;51.358;12.282;2023-04-24T15:26:28;14.10;1.00
3794;DHT22;1912;51.358;12.282;2023-04-24T15:28:53;14.00;1.00
3794;DHT22;1912;51.358;12.282;2023-04-24T15:31:19;14.40;1.00
3794;DHT22;1912;51.358;12.282;2023-04-24T15:33:45;14.70;1.00
3794;DHT22;1912;51.358;12.282;2023-04-24T15:36:11;14.80;1.00
3794;DHT22;1912;51.358;12.282;2023-04-24T15:38:37;14.80;1.00
3794;DHT22;1912;51.358;12.282;2023-04-24T15:41:03;14.70;1.00
3794;DHT22;1912;51.358;12.282;2023-04-24T15:43:28;14.40;1.00
3794;DHT22;1912;51.358;12.282;2023-04-24T15:45:56;14.40;1.00
3794;DHT22;1912;51.358;12.282;2023-04-24T15:48:22;14.40;1.00
3794;DHT22;1912;51.358;12.282;2023-04-24T15:50:48;14.50;1.00
3794;DHT22;1912;51.358;12.282;2023-04-24T15:53:14;14.40;1.00
3794;DHT22;1912;51.358;12.282;2023-04-24T15:55:52;14.10;1.00
3794;DHT22;1912;51.358;12.282;2023-04-24T15:58:19;14.00;1.00
3794;DHT22;1912;51.358;12.282;2023-04-24T16:00:45;13.80;1.00
3794;DHT22;1912;51.358;12.282;2023-04-24T16:03:12;13.70;1.00
3794;DHT22;1912;51.358;12.282;2023-04-24T16:05:37;13.70;1.00
3794;DHT22;1912;51.358;12.282;2023-04-24T16:08:03;13.70;1.00
3794;DHT22;1912;51.358;12.282;2023-04-24T16:10:29;13.60;1.00
3794;DHT22;1912;51.358;12.282;2023-04-24T16:12:54;13.50;1.00
3794;DHT22;1912;51.358;12.282;2023-04-24T16:15:20;13.60;1.00
3794;DHT22;1912;51.358;12.282;2023-04-24T16:17:48;13.70;1.00
3794;DHT22;1912;51.358;12.282;2023-04-24T16:20:14;13.60;1.00
3794;DHT22;1912;51.358;12.282;2023-04-24T16:22:40;13.20;1.00
3794;DHT22;1912;51.358;12.282;2023-04-24T16:25:07;13.10;1.00
3794;DHT22;1912;51.358;12.282;2023-04-24T16:27:33;13.20;1.00
3794;DHT22;1912;51.358;12.282;2023-04-24T16:29:58;13.00;1.00
3794;DHT22;1912;51.358;12.282;2023-04-24T16:32:24;12.80;1.00
3794;DHT22;1912;51.358;12.282;2023-04-24T16:34:50;12.80;1.00
3794;DHT22;1912;51.358;12.282;2023-04-24T16:37:17;12.80;1.00
3794;DHT22;1912;51.358;12.282;2023-04-24T16:39:43;12.80;1.00
3794;DHT22;1912;51.358;12.282;2023-04-24T16:42:13;12.70;1.00
3794;DHT22;1912;51.358;12.282;2023-04-24T16:44:40;12.60;1.00
3794;DHT22;1912;51.358;12.282;2023-04-24T16:47:08;12.50;1.00
3794;DHT22;1912;51.358;12.282;2023-04-24T16:49:35;12.40;1.00
3794;DHT22;1912;51.358;12.282;2023-04-24T16:52:01;12.40;1.00
3794;DHT22;1912;51.358;12.282;2023-04-24T16:54:27;12.40;1.00
3794;DHT22;1912;51.358;12.282;2023-04-24T16:56:55;12.30;1.00
3794;DHT22;1912;51.358;12.282;2023-04-24T16:59:21;12.30;1.00
3794;DHT22;1912;51.358;12.282;2023-04-24T17:01:47;12.30;1.00
3794;DHT22;1912;51.358;12.282;2023-04-24T17:04:13;12.30;1.00
3794;DHT22;1912;51.358;12.282;2023-04-24T17:06:39;12.30;1.00
3794;DHT22;1912;51.358;12.282;2023-04-24T17:09:05;12.20;1.00
3794;DHT22;1912;51.358;12.282;2023-04-24T17:11:31;12.20;1.00
3794;DHT22;1912;51.358;12.282;2023-04-24T17:13:56;12.20;1.00
3794;DHT22;1912;51.358;12.282;2023-04-24T17:16:24;12.10;1.00
3794;DHT22;1912;51.358;12.282;2023-04-24T17:18:49;12.10;1.00
3794;DHT22;1912;51.358;12.282;2023-04-24T17:21:15;12.20;1.00
3794;DHT22;1912;51.358;12.282;2023-04-24T17:23:41;12.10;1.00
3794;DHT22;1912;51.358;12.282;2023-04-24T17:26:07;12.00;1.00
3794;DHT22;1912;51.358;12.282;2023-04-24T17:28:33;12.00;1.00
3794;DHT22;1912;51.358;12.282;2023-04-24T17:30:59;11.90;1.00
3794;DHT22;1912;51.358;12.282;2023-04-24T17:33:28;11.80;1.00
3794;DHT22;1912;51.358;12.282;2023-04-24T17:35:55;11.80;1.00
3794;DHT22;1912;51.358;12.282;2023-04-24T17:38:22;11.90;1.00
3794;DHT22;1912;51.358;12.282;2023-04-24T17:40:49;11.80;1.00
3794;DHT22;1912;51.358;12.282;2023-04-24T17:43:21;11.80;1.00
3794;DHT22;1912;51.358;12.282;2023-04-24T17:45:49;11.70;1.00
3794;DHT22;1912;51.358;12.282;2023-04-24T17:48:17;11.70;1.00
3794;DHT22;1912;51.358;12.282;2023-04-24T17:50:44;11.70;1.00
3794;DHT22;1912;51.358;12.282;2023-04-24T17:53:10;11.70;1.00
3794;DHT22;1912;51.358;12.282;2023-04-24T17:55:40;11.60;1.00
3794;DHT22;1912;51.358;12.282;2023-04-24T17:58:08;11.60;1.00
3794;DHT22;1912;51.358;12.282;2023-04-24T18:00:34;11.60;1.00
3794;DHT22;1912;51.358;12.282;2023-04-24T18:03:01;11.50;1.00
3794;DHT22;1912;51.358;12.282;2023-04-24T18:05:29;11.50;1.00
3794;DHT22;1912;51.358;12.282;2023-04-24T18:07:56;11.40;1.00
3794;DHT22;1912;51.358;12.282;2023-04-24T18:10:24;11.40;1.00
3794;DHT22;1912;51.358;12.282;2023-04-24T18:12:50;11.40;1.00
3794;DHT22;1912;51.358;12.282;2023-04-24T18:15:16;11.30;1.00
3794;DHT22;1912;51.358;12.282;2023-04-24T18:17:43;11.20;1.00
3794;DHT22;1912;51.358;12.282;2023-04-24T18:20:09;11.20;1.00
3794;DHT22;1912;51.358;12.282;2023-04-24T18:22:36;11.10;1.00
3794;DHT22;1912;51.358;12.282;2023-04-24T18:25:02;11.10;1.00
3794;DHT22;1912;51.358;12.282;2023-04-24T18:27:28;11.10;1.00
3794;DHT22;1912;51.358;12.282;2023-04-24T18:29:58;11.00;1.00
3794;DHT22;1912;51.358;12.282;2023-04-24T18:32:24;11.00;1.00
3794;DHT22;1912;51.358;12.282;2023-04-24T18:34:51;10.90;1.00
3794;DHT22;1912;51.358;12.282;2023-04-24T18:37:17;10.80;1.00
3794;DHT22;1912;51.358;12.282;2023-04-24T18:39:42;10.70;1.00
3794;DHT22;1912;51.358;12.282;2023-04-24T18:42:08;10.70;1.00
3794;DHT22;1912;51.358;12.282;2023-04-24T18:44:34;10.60;1.00
3794;DHT22;1912;51.358;12.282;2023-04-24T18:47:03;10.50;1.00
3794;DHT22;1912;51.358;12.282;2023-04-24T18:49:28;10.40;1.00
3794;DHT22;1912;51.358;12.282;2023-04-24T18:51:54;10.40;1.00
3794;DHT22;1912;51.358;12.282;2023-04-24T18:54:20;10.30;1.00
3794;DHT22;1912;51.358;12.282;2023-04-24T18:56:46;10.30;1.00
3794;DHT22;1912;51.358;12.282;2023-04-24T18:59:11;10.20;1.00
3794;DHT22;1912;51.358;12.282;2023-04-24T19:01:37;10.20;1.00
3794;DHT22;1912;51.358;12.282;2023-04-24T19:04:03;10.30;1.00
3794;DHT22;1912;51.358;12.282;2023-04-24T19:06:29;10.10;1.00
3794;DHT22;1912;51.358;12.282;2023-04-24T19:08:56;10.20;1.00
3794;DHT22;1912;51.358;12.282;2023-04-24T19:11:21;10.30;1.00
3794;DHT22;1912;51.358;12.282;2023-04-24T19:13:47;10.40;1.00
3794;DHT22;1912;51.358;12.282;2023-04-24T19:16:13;10.20;1.00
3794;DHT22;1912;51.358;12.282;2023-04-24T19:18:39;10.20;1.00
3794;DHT22;1912;51.358;12.282;2023-04-24T19:21:05;10.10;1.00
3794;DHT22;1912;51.358;12.282;2023-04-24T19:23:30;10.10;1.00
3794;DHT22;1912;51.358;12.282;2023-04-24T19:26:03;10.00;1.00
3794;DHT22;1912;51.358;12.282;2023-04-24T19:28:29;9.90;1.00
3794;DHT22;1912;51.358;12.282;2023-04-24T19:30:55;9.90;1.00
3794;DHT22;1912;51.358;12.282;2023-04-24T19:33:23;9.80;1.00
3794;DHT22;1912;51.358;12.282;2023-04-24T19:35:49;9.70;1.00
3794;DHT22;1912;51.358;12.282;2023-04-24T19:38:15;9.60;1.00
3794;DHT22;1912;51.358;12.282;2023-04-24T19:40:40;9.60;1.00
3794;DHT22;1912;51.358;12.282;2023-04-24T19:43:06;9.60;1.00
3794;DHT22;1912;51.358;12.282;2023-04-24T19:45:32;9.60;1.00
3794;DHT22;1912;51.358;12.282;2023-04-24T19:47:58;9.50;1.00
3794;DHT22;1912;51.358;12.282;2023-04-24T19:50:24;9.50;1.00
3794;DHT22;1912;51.358;12.282;2023-04-24T19:52:50;9.50;1.00
3794;DHT22;1912;51.358;12.282;2023-04-24T19:55:16;9.50;1.00
3794;DHT22;1912;51.358;12.282;2023-04-24T19:57:42;9.50;1.00